Latest Weather Observations for Ivanhoe Airport

IDN60801

Issued at 3:02 pm EDT Thursday 15 November 2018 (issued every 10 minutes, with the page automatically refreshed every 10 minutes)

About weather observations | Map of weather stations | Latest weather observations for NSW | Other Formats
Station Details ID: 049000 Name: IVANHOE AERODROME AWS Lat: -32.88 Lon: 144.31 Height: 100.0 m
Data from the previous 72 hours. | See also: Recent months at Ivanhoe Airport
Date/Time
EDT
Temp
°C
App
Temp
°C
Dew
Point
°C
Rel
Hum
%
Delta-T
°C
Wind Press
QNH
hPa
Press
MSL
hPa
Rain since
9am
mm
Dir  Spd
km/h
Gust
km/h
Spd
kts
Gust
kts
15/03:00pm 27.3 24.8 9.6 33 9.8 SSW 13 24 7 13 1018.8 1018.4 0.0
15/02:30pm 26.2 23.4 10.0 36 9.0 SSE 15 24 8 13 1019.3 1018.9 0.0
15/02:00pm 25.8 23.1 10.4 38 8.6 SSE 15 33 8 18 1019.8 1019.4 0.0
15/01:30pm 24.9 21.8 10.4 40 8.1 S 17 28 9 15 1020.0 1019.6 0.0
15/01:00pm 24.4 22.1 10.3 41 7.8 SSW 13 26 7 14 1020.3 1019.9 0.0
15/12:30pm 24.2 22.4 10.8 43 7.5 SE 11 24 6 13 1020.5 1020.1 0.0
15/12:00pm 23.4 20.7 10.5 44 7.1 SSE 15 22 8 12 1020.7 1020.3 0.0
15/11:30am 22.2 19.2 10.7 48 6.4 S 17 22 9 12 1020.9 1020.5 0.0
15/11:00am 21.7 18.7 10.8 50 6.0 S 17 24 9 13 1021.2 1020.8 0.0
15/10:30am 21.2 18.3 11.0 52 5.6 SSE 17 26 9 14 1021.3 1020.9 0.0
15/10:00am 20.2 17.3 10.9 55 5.1 SSE 17 24 9 13 1021.2 1020.8 0.0
15/09:30am 19.7 17.7 11.5 59 4.5 S 13 20 7 11 1021.0 1020.6 0.0
15/09:00am 18.6 15.3 10.9 61 4.2 S 19 24 10 13 1020.8 1020.4 1.2
15/08:30am 17.6 14.0 10.7 64 3.7 S 20 28 11 15 1020.5 1020.1 1.2
15/08:00am 17.1 13.5 10.5 65 3.5 S 20 37 11 20 1020.2 1019.8 1.2
15/07:30am 16.3 13.7 10.6 69 3.0 SSW 15 22 8 12 1020.0 1019.6 1.2
15/07:00am 15.5 13.2 10.3 71 2.7 SSW 13 17 7 9 1019.3 1018.9 1.2
15/06:30am 14.8 12.8 10.0 73 2.5 SSW 11 17 6 9 1018.8 1018.4 1.2
15/06:00am 15.2 12.4 10.0 71 2.7 SSW 15 20 8 11 1018.3 1017.9 1.2
15/05:30am 15.8 12.6 9.9 68 3.1 SSW 17 24 9 13 1017.9 1017.5 1.2
15/05:00am 16.2 13.4 10.1 67 3.2 SSW 15 22 8 12 1017.7 1017.2 1.2
15/04:30am 16.8 14.4 10.0 64 3.6 S 13 17 7 9 1017.4 1016.9 1.2
15/04:00am 17.1 14.7 10.0 63 3.8 SSW 13 17 7 9 1017.2 1016.7 1.2
15/03:30am 17.8 15.4 9.9 60 4.2 SSW 13 20 7 11 1017.0 1016.5 1.2
15/03:00am 18.7 15.1 9.8 56 4.7 SSW 19 26 10 14 1016.8 1016.3 1.2
15/02:30am 19.4 15.7 10.1 55 5.0 S 20 30 11 16 1016.6 1016.1 1.2
15/02:00am 19.7 16.7 10.7 56 4.9 SSW 17 26 9 14 1016.6 1016.1 1.2
15/01:30am 20.2 16.8 11.4 57 4.9 SSW 20 28 11 15 1016.6 1016.1 1.2
15/01:00am 19.6 18.6 13.3 67 3.6 SW 11 13 6 7 1016.3 1015.9 1.2
15/12:30am 20.0 19.1 13.7 67 3.6 SSW 11 13 6 7 1016.3 1015.9 1.2
15/12:00am 20.8 20.2 14.5 67 3.7 SSW 11 15 6 8 1016.3 1015.9 1.2
 
Date/Time
EDT
Temp
°C
App
Temp
°C
Dew
Point
°C
Rel
Hum
%
Delta-T
°C
Wind Press
QNH
hPa
Press
MSL
hPa
Rain since
9am
mm
Dir  Spd
km/h
Gust
km/h
Spd
kts
Gust
kts
14/11:30pm 20.8 21.1 16.0 74 2.9 SSW 9 11 5 6 1016.2 1015.8 1.2
14/11:00pm 21.6 21.9 16.1 71 3.3 S 9 11 5 6 1016.2 1015.8 1.2
14/10:30pm 21.9 22.8 17.5 76 2.7 SSW 9 11 5 6 1016.2 1015.8 1.2
14/10:00pm 22.3 23.4 17.2 73 3.1 SSW 7 11 4 6 1015.9 1015.5 1.2
14/09:30pm 22.2 23.4 17.3 74 3.0 SW 7 9 4 5 1015.5 1015.1 1.2
14/09:00pm 22.7 24.0 17.6 73 3.2 SSW 7 9 4 5 1014.9 1014.5 1.2
14/08:30pm 23.1 24.1 16.9 68 3.8 SSW 7 9 4 5 1014.5 1014.1 1.2
14/08:00pm 24.0 24.9 16.5 63 4.6 SSE 7 7 4 4 1014.2 1013.8 1.2
14/07:30pm 24.4 24.3 16.1 60 5.1 SSE 11 17 6 9 1013.9 1013.5 1.2
14/07:00pm 25.3 23.8 16.2 57 5.6 SSE 19 26 10 14 1013.7 1013.3 1.2
14/06:30pm 27.8 26.6 17.6 53 6.5 SW 20 30 11 16 1013.4 1013.0 1.2
14/06:00pm 27.2 27.9 15.6 49 7.1 NNE 6 9 3 5 1013.1 1012.7 1.2
14/05:30pm 25.8 24.4 15.5 53 6.3 SSW 17 30 9 16 1013.4 1013.0 1.2
14/05:12pm 26.3 23.0 16.0 53 6.3 WSW 28 46 15 25 1013.2 1012.8 1.2
14/05:00pm 28.7 26.8 15.2 43 8.3 WSW 19 32 10 17 1013.2 1012.8 1.2
14/04:30pm 29.1 28.9 16.6 46 7.8 WNW 13 24 7 13 1013.1 1012.7 1.2
14/04:00pm 27.2 28.3 17.1 54 6.3 NW 7 13 4 7 1013.5 1013.1 1.2
14/03:30pm 23.7 25.8 20.2 81 2.3 N 9 13 5 7 1013.8 1013.4 1.2
14/03:00pm 21.3 19.7 16.5 74 2.9 NW 20 33 11 18 1014.0 1013.6 1.0
14/02:55pm 22.4 20.6 15.5 65 4.1 W 19 33 10 18 1014.1 1013.7 0.8
14/02:30pm 27.5 27.8 16.1 49 7.1 SW 9 17 5 9 1014.0 1013.6 0.0
14/02:00pm 27.2 27.2 16.2 51 6.8 WSW 11 19 6 10 1014.3 1013.9 0.0
14/01:30pm 27.8 28.5 16.1 49 7.2 NW 7 17 4 9 1014.4 1014.0 0.0
14/01:00pm 27.0 27.1 15.4 49 7.1 W 9 13 5 7 1014.6 1014.2 0.0
14/12:30pm 26.5 27.7 15.8 51 6.6 SW 4 7 2 4 1014.7 1014.3 0.0
14/12:00pm 26.2 27.0 16.4 54 6.1 N 7 13 4 7 1015.1 1014.7 0.0
14/11:30am 25.5 26.6 16.6 58 5.5 NNW 6 9 3 5 1015.0 1014.6 0.0
14/11:00am 25.3 26.2 16.7 59 5.3 NNW 7 13 4 7 1015.0 1014.6 0.0
14/10:30am 24.4 26.6 17.4 65 4.4 NW 2 9 1 5 1015.1 1014.7 0.0
14/10:00am 23.5 24.4 17.5 69 3.7 WNW 9 17 5 9 1015.1 1014.7 0.0
14/09:30am 23.2 23.7 18.3 74 3.1 NW 13 17 7 9 1015.0 1014.6 0.0
14/09:00am 22.3 22.2 17.9 76 2.7 WNW 15 20 8 11 1014.9 1014.5 4.8
14/08:30am 21.0 21.3 18.0 83 1.9 NW 13 19 7 10 1014.6 1014.2 4.8
14/08:00am 19.9 21.4 18.9 94 0.6 NW 9 13 5 7 1014.2 1013.8 4.8
14/07:30am 18.5 20.2 18.5 100 0.0 N 7 9 4 5 1014.0 1013.6 4.8
14/07:00am 17.5 18.8 17.5 100 0.0 NNE 7 9 4 5 1013.9 1013.5 4.8
14/06:30am 17.0 17.7 17.0 100 0.0 N 9 9 5 5 1013.6 1013.2 4.8
14/06:00am 16.8 17.8 16.8 100 0.0 NNE 7 9 4 5 1013.2 1012.8 4.8
14/05:30am 16.7 17.6 16.5 99 0.1 NNE 7 9 4 5 1012.9 1012.5 4.8
14/05:00am 16.9 17.5 16.7 99 0.1 NNE 9 9 5 5 1012.7 1012.3 4.8
14/04:30am 17.0 18.0 16.8 99 0.1 NE 7 9 4 5 1012.5 1012.1 4.8
14/04:00am 17.2 19.6 17.0 99 0.1 CALM 0 4 0 2 1012.6 1012.2 4.8
14/03:30am 17.5 18.9 17.3 99 0.1 NNE 6 7 3 4 1012.3 1011.9 4.8
14/03:00am 17.8 20.1 17.6 99 0.1 ESE 2 6 1 3 1012.4 1012.0 4.8
14/02:30am 18.2 19.9 18.0 99 0.1 ENE 6 7 3 4 1012.5 1012.1 4.8
14/02:00am 18.4 19.4 17.8 96 0.4 ENE 9 9 5 5 1012.9 1012.5 4.8
14/01:30am 18.4 20.0 18.2 99 0.1 E 7 11 4 6 1013.1 1012.7 4.8
14/01:00am 18.5 21.3 17.9 96 0.4 CALM 0 0 0 0 1013.8 1013.4 4.8
14/12:30am 18.5 21.1 17.5 94 0.6 CALM 0 0 0 0 1014.0 1013.6 4.8
14/12:00am 18.5 19.9 17.7 95 0.5 ENE 7 11 4 6 1014.0 1013.6 4.8
 
Date/Time
EDT
Temp
°C
App
Temp
°C
Dew
Point
°C
Rel
Hum
%
Delta-T
°C
Wind Press
QNH
hPa
Press
MSL
hPa
Rain since
9am
mm
Dir  Spd
km/h
Gust
km/h
Spd
kts
Gust
kts
13/11:30pm 18.5 19.8 17.5 94 0.6 NE 7 9 4 5 1014.2 1013.8 4.8
13/11:00pm 18.7 19.5 17.4 92 0.8 ENE 9 11 5 6 1014.2 1013.8 4.8
13/10:30pm 18.9 21.4 18.1 95 0.5 NE 2 9 1 5 1014.4 1014.0 4.8
13/10:00pm 19.0 20.1 18.8 99 0.1 NE 11 15 6 8 1014.3 1013.9 4.8
13/09:30pm 18.9 19.9 18.7 99 0.1 NE 11 13 6 7 1014.5 1014.1 4.8
13/09:00pm 18.9 20.9 18.7 99 0.1 NE 6 9 3 5 1014.2 1013.8 4.8
13/08:30pm 18.6 21.6 18.4 99 0.1 CALM 0 6 0 3 1014.0 1013.6 4.8
13/08:00pm 18.7 21.7 18.4 98 0.2 CALM 0 0 0 0 1013.9 1013.5 4.8
13/07:30pm 18.7 20.6 18.5 99 0.1 E 6 7 3 4 1013.6 1013.2 4.2
13/07:00pm 18.6 21.2 17.6 94 0.6 CALM 0 0 0 0 1013.5 1013.1 4.0
13/06:30pm 18.7 18.4 16.5 87 1.3 NW 13 17 7 9 1013.8 1013.4 3.4
13/06:00pm 19.6 20.9 17.0 85 1.6 WNW 6 9 3 5 1013.6 1013.2 2.6
13/05:30pm 19.9 20.3 16.3 80 2.2 WNW 9 11 5 6 1013.6 1013.2 2.2
13/05:00pm 20.5 21.4 16.7 79 2.3 WNW 7 11 4 6 1013.7 1013.3 2.0
13/04:30pm 21.4 22.7 17.0 76 2.7 ENE 6 7 3 4 1013.3 1012.9 1.6
13/04:00pm 21.5 24.0 17.3 77 2.6 CALM 0 0 0 0 1013.3 1012.9 1.4
13/03:30pm 21.4 22.0 15.7 70 3.4 W 7 11 4 6 1013.6 1013.2 1.0
13/03:00pm 22.3 22.7 15.2 64 4.2 NNW 7 17 4 9 1013.4 1013.0 0.6
13/02:30pm 25.1 24.3 13.0 47 7.1 WNW 9 11 5 6 1012.6 1012.2 0.0
13/02:00pm 25.2 23.8 13.4 48 6.9 WNW 13 19 7 10 1012.6 1012.2 0.0
13/01:30pm 25.2 24.6 14.6 51 6.3 WNW 11 17 6 9 1012.7 1012.3 0.0
13/01:00pm 26.5 25.9 11.8 40 8.5 WNW 6 7 3 4 1012.0 1011.6 0.0
13/12:30pm 26.5 23.8 12.9 43 8.0 NW 19 26 10 14 1012.6 1012.2 0.0
13/12:00pm 27.7 24.4 10.9 35 9.6 NW 19 24 10 13 1012.4 1012.0 0.0
13/11:30am 27.8 23.7 10.1 33 10.0 N 22 32 12 17 1012.3 1011.9 0.0
13/11:00am 27.4 22.8 9.7 33 9.9 N 24 32 13 17 1012.2 1011.8 0.0
13/10:30am 27.1 22.9 9.9 34 9.6 N 22 30 12 16 1012.3 1011.9 0.0
13/10:00am 27.1 20.6 9.0 32 10.0 N 33 46 18 25 1012.7 1012.3 0.0
13/09:48am 27.6 21.0 8.5 30 10.4 N 33 57 18 31 1012.8 1012.4 0.0
13/09:30am 28.4 23.3 7.6 27 11.3 N 24 35 13 19 1012.6 1012.2 0.0
13/09:00am 27.7 24.3 7.5 28 10.9 N 15 26 8 14 1012.4 1012.0 0.0
13/08:30am 27.0 23.2 7.5 29 10.5 N 17 20 9 11 1011.7 1011.3 0.0
13/08:00am 27.2 22.9 7.1 28 10.7 N 19 26 10 14 1011.2 1010.8 0.0
13/07:30am 27.4 22.9 6.8 27 10.9 N 20 26 11 14 1010.8 1010.4 0.0
13/07:00am 27.3 22.7 6.7 27 10.9 NNE 20 26 11 14 1010.4 1010.0 0.0
13/06:30am 27.4 22.9 6.8 27 10.9 NNE 20 28 11 15 1010.3 1009.9 0.0
13/06:00am 27.3 22.4 6.7 27 10.9 NNE 22 30 12 16 1010.0 1009.6 0.0
13/05:30am 26.9 22.4 6.9 28 10.6 NNE 20 26 11 14 1009.8 1009.4 0.0
13/05:00am 26.5 22.0 7.0 29 10.3 NE 20 24 11 13 1009.4 1009.0 0.0
13/04:30am 26.2 22.2 6.8 29 10.2 NE 17 20 9 11 1009.5 1009.1 0.0
13/04:00am 26.3 22.0 6.9 29 10.3 NNE 19 24 10 13 1009.3 1008.9 0.0
13/03:30am 26.1 21.7 6.7 29 10.2 NNE 19 24 10 13 1009.5 1009.1 0.0
13/03:00am 25.8 21.6 5.9 28 10.3 NE 17 20 9 11 1009.6 1009.2 0.0
13/02:30am 25.9 21.3 5.5 27 10.5 NE 19 24 10 13 1009.9 1009.5 0.0
13/02:00am 24.7 20.7 5.0 28 10.0 ENE 15 17 8 9 1010.2 1009.8 0.0
13/01:30am 25.5 21.4 4.6 26 10.5 ENE 15 19 8 10 1010.4 1010.0 0.0
13/01:00am 25.6 21.7 3.6 24 10.9 ENE 13 17 7 9 1010.7 1010.3 0.0
13/12:30am 25.8 21.7 2.5 22 11.3 E 13 19 7 10 1010.9 1010.5 0.0
13/12:00am 26.4 21.8 1.7 20 11.9 E 15 17 8 9 1011.1 1010.7 0.0
 
Date/Time
EDT
Temp
°C
App
Temp
°C
Dew
Point
°C
Rel
Hum
%
Delta-T
°C
Wind Press
QNH
hPa
Press
MSL
hPa
Rain since
9am
mm
Dir  Spd
km/h
Gust
km/h
Spd
kts
Gust
kts
12/11:30pm 26.7 22.7 2.6 21 11.8 E 13 17 7 9 1011.5 1011.1 0.0
12/11:00pm 27.2 23.1 2.3 20 12.2 ENE 13 15 7 8 1011.7 1011.3 0.0
12/10:30pm 27.6 23.8 1.9 19 12.5 E 11 13 6 7 1011.9 1011.5 0.0
12/10:00pm 27.7 23.8 1.2 18 12.8 ENE 11 13 6 7 1011.9 1011.5 0.0
12/09:30pm 28.5 24.6 1.1 17 13.3 E 11 11 6 6 1011.7 1011.3 0.0
12/09:00pm 28.7 24.7 0.4 16 13.6 E 11 13 6 7 1011.6 1011.2 0.0
12/08:30pm 29.6 25.9 0.2 15 14.1 E 9 11 5 6 1011.7 1011.3 0.0
12/08:00pm 30.1 26.7 -0.3 14 14.5 ESE 7 9 4 5 1011.7 1011.3 0.0
12/07:30pm 31.7 29.4 -2.3 11 15.9 CALM 0 0 0 0 1011.6 1011.2 0.0
12/07:00pm 32.9 30.2 -2.7 10 16.7 WNW 2 7 1 4 1011.7 1011.3 0.0
12/06:30pm 34.0 29.3 -1.9 10 17.1 NW 13 17 7 9 1011.7 1011.3 0.0
12/06:00pm 33.3 29.7 -3.8 9 17.1 NNW 6 13 3 7 1011.7 1011.3 0.0
12/05:30pm 33.7 30.1 -2.1 10 17.0 NNW 7 13 4 7 1011.8 1011.4 0.0
12/05:00pm 34.1 28.5 -3.2 9 17.5 N 17 28 9 15 1011.9 1011.5 0.0
12/04:30pm 35.3 29.8 -2.3 9 18.0 NE 17 30 9 16 1012.0 1011.6 0.0
12/04:00pm 34.9 30.9 -2.6 9 17.8 W 9 17 5 9 1012.2 1011.8 0.0
12/03:30pm 35.3 29.8 -2.3 9 18.0 NE 17 30 9 16 1012.6 1012.2 0.0

Other Formats:

Comma delimited format used in spreadsheet applications
http://www.bom.gov.au/fwo/IDN60801/IDN60801.95697.axf

JavaScript Object Notation format (JSON) in row-major order
http://www.bom.gov.au/fwo/IDN60801/IDN60801.95697.json